Time;durP1;ratioP1;P1;durP2;ratioP2;P2;SDS_P1;SDS_P2;PMS_P1;PMS_P2;Temp;Humidity;BMP_temperature;BMP_pressure;BME280_temperature;BME280_humidity;BME280_pressure;Samples;Min_cycle;Max_cycle;Signal;HPM_P1;HPM_P2
2022/07/31 00:00:08;;;;;;;4.75;2.95;;;;;;;26.77;40.02;101797.22;5005858;28;20045;-70
2022/07/31 00:02:34;;;;;;;7.13;3.55;;;;;;;26.95;39.79;101796.25;5006654;28;20030;-69
2022/07/31 00:04:59;;;;;;;4.03;2.60;;;;;;;26.91;39.57;101789.72;5007408;28;20071;-69
2022/07/31 00:07:25;;;;;;;8.88;3.80;;;;;;;26.91;39.74;101798.00;5008172;28;20025;-69
2022/07/31 00:09:50;;;;;;;7.85;3.10;;;;;;;26.89;39.80;101791.16;5007406;28;20100;-71
2022/07/31 00:12:16;;;;;;;6.00;3.17;;;;;;;26.83;39.69;101789.63;5007175;28;20041;-69
2022/07/31 00:14:41;;;;;;;7.20;3.35;;;;;;;26.75;40.00;101793.94;5006397;28;20453;-69
2022/07/31 00:17:07;;;;;;;8.52;3.45;;;;;;;26.88;39.46;101787.59;5007382;28;20034;-69
2022/07/31 00:19:32;;;;;;;5.45;3.00;;;;;;;26.78;40.00;101792.53;5007236;28;20466;-71
2022/07/31 00:21:58;;;;;;;5.80;2.75;;;;;;;26.64;40.65;101789.75;5006906;28;20419;-69
2022/07/31 00:24:24;;;;;;;4.80;2.92;;;;;;;26.73;40.15;101787.94;5007686;28;20379;-68
2022/07/31 00:26:49;;;;;;;5.63;2.78;;;;;;;26.85;39.84;101790.97;5008338;28;20494;-70
2022/07/31 00:29:15;;;;;;;5.75;2.88;;;;;;;26.88;39.81;101784.84;5007632;28;20121;-72
2022/07/31 00:31:40;;;;;;;7.38;2.80;;;;;;;26.83;40.19;101781.34;5008492;28;20029;-69
2022/07/31 00:34:06;;;;;;;4.22;2.35;;;;;;;26.88;39.77;101776.56;4998815;28;20049;-70
2022/07/31 00:36:31;;;;;;;8.90;2.78;;;;;;;26.94;40.23;101780.84;4987705;28;20109;-71
2022/07/31 00:38:57;;;;;;;5.63;3.03;;;;;;;26.76;40.54;101779.03;4988179;28;20170;-71
2022/07/31 00:41:23;;;;;;;5.20;2.95;;;;;;;26.86;39.90;101776.06;4987658;28;20038;-72
2022/07/31 00:43:48;;;;;;;6.70;3.08;;;;;;;26.74;40.73;101762.00;4988383;28;20042;-70
2022/07/31 00:46:14;;;;;;;6.18;2.88;;;;;;;26.85;40.11;101768.06;4988254;28;20042;-69
2022/07/31 00:48:39;;;;;;;3.60;2.55;;;;;;;26.87;40.25;101774.91;4988344;28;20390;-69
2022/07/31 00:51:05;;;;;;;6.25;3.33;;;;;;;26.94;40.18;101764.28;4988307;28;20034;-69
2022/07/31 00:53:30;;;;;;;6.28;3.60;;;;;;;26.88;40.40;101753.66;4988656;28;20039;-69
2022/07/31 00:55:56;;;;;;;6.13;3.10;;;;;;;26.87;40.39;101752.03;4988314;28;20458;-68
2022/07/31 00:58:21;;;;;;;5.93;3.53;;;;;;;26.77;40.91;101752.28;4991679;28;20022;-68
2022/07/31 01:00:47;;;;;;;5.63;3.00;;;;;;;26.84;40.64;101759.00;4991271;28;20097;-69
2022/07/31 01:03:13;;;;;;;6.38;3.90;;;;;;;26.79;40.53;101750.84;4990657;28;20030;-70
2022/07/31 01:05:38;;;;;;;6.72;3.67;;;;;;;26.74;40.86;101750.97;4992221;28;20042;-69
2022/07/31 01:08:04;;;;;;;4.53;3.45;;;;;;;26.76;40.94;101748.72;4991450;28;20030;-69
2022/07/31 01:10:53;;;;;;;6.25;3.42;;;;;;;26.75;40.66;101749.03;4991986;28;20018;-69
2022/07/31 01:13:30;;;;;;;3.58;3.28;;;;;;;26.84;40.30;101752.66;4990868;28;20407;-67
2022/07/31 01:15:58;;;;;;;8.88;3.35;;;;;;;26.81;40.47;101748.56;4991246;28;20034;-66
2022/07/31 01:18:25;;;;;;;7.57;3.58;;;;;;;26.87;40.26;101746.50;4991432;28;20084;-67
2022/07/31 01:20:54;;;;;;;7.32;3.70;;;;;;;26.74;40.71;101731.66;4991211;28;20042;-67
2022/07/31 01:23:53;;;;;;;4.32;3.58;;;;;;;26.55;41.58;101732.91;4991321;28;20091;-66
2022/07/31 01:26:40;;;;;;;9.00;4.23;;;;;;;26.73;40.85;101735.53;4990133;28;20037;-69
2022/07/31 01:29:31;;;;;;;5.85;3.55;;;;;;;26.72;40.95;101728.38;4990934;28;20398;-68
2022/07/31 01:32:06;;;;;;;5.00;3.22;;;;;;;26.74;40.81;101728.06;4990058;28;20117;-68
2022/07/31 01:34:41;;;;;;;4.15;3.03;;;;;;;26.79;40.89;101730.72;4989525;28;20058;-67
2022/07/31 01:37:19;;;;;;;11.02;4.00;;;;;;;26.71;41.02;101726.75;4990671;28;20046;-67
2022/07/31 01:39:51;;;;;;;8.35;3.80;;;;;;;26.74;41.10;101731.66;4990743;28;20031;-66
2022/07/31 01:42:19;;;;;;;4.75;3.47;;;;;;;26.81;40.88;101734.00;4990526;28;20146;-68
2022/07/31 01:44:50;;;;;;;6.18;3.17;;;;;;;26.59;41.08;101726.47;4990285;28;20050;-66
2022/07/31 01:47:19;;;;;;;5.90;3.63;;;;;;;26.52;41.20;101717.78;4990429;28;20037;-68
2022/07/31 01:49:46;;;;;;;5.32;3.40;;;;;;;26.39;41.94;101728.84;4990947;28;20065;-68
2022/07/31 01:52:14;;;;;;;6.93;3.70;;;;;;;26.26;42.31;101727.75;4990668;28;20053;-68
2022/07/31 01:54:40;;;;;;;7.65;3.88;;;;;;;26.42;41.90;101722.72;4990316;28;20041;-68
2022/07/31 01:57:07;;;;;;;7.30;3.88;;;;;;;26.32;41.92;101721.00;4990542;28;20121;-67
2022/07/31 01:59:36;;;;;;;4.93;4.10;;;;;;;26.35;41.98;101722.31;4990023;28;20030;-68
2022/07/31 02:02:03;;;;;;;6.10;4.20;;;;;;;26.22;42.34;101732.22;4990235;28;20121;-68
2022/07/31 02:04:29;;;;;;;6.18;3.80;;;;;;;26.30;41.85;101734.28;4990930;28;20390;-67
2022/07/31 02:06:55;;;;;;;8.13;4.10;;;;;;;26.42;41.62;101733.72;4990004;28;20049;-68
2022/07/31 02:09:23;;;;;;;6.85;4.43;;;;;;;26.07;42.80;101744.41;4989464;28;20113;-67
2022/07/31 02:11:50;;;;;;;6.63;4.32;;;;;;;26.10;42.53;101740.22;4990244;28;20038;-68
2022/07/31 02:14:18;;;;;;;6.57;3.67;;;;;;;26.17;42.58;101745.31;4989764;28;20121;-68
2022/07/31 02:16:45;;;;;;;6.47;4.07;;;;;;;26.24;42.46;101741.00;5005468;28;20380;-67
2022/07/31 02:19:13;;;;;;;5.70;4.10;;;;;;;26.21;43.09;101738.06;4989635;28;20038;-68
2022/07/31 02:21:39;;;;;;;7.13;4.65;;;;;;;26.25;43.21;101739.06;4989834;28;20039;-69
2022/07/31 02:24:05;;;;;;;9.13;5.20;;;;;;;26.14;43.19;101738.50;4989947;28;20045;-67
2022/07/31 02:26:32;;;;;;;4.65;4.25;;;;;;;26.15;43.29;101733.78;4989346;28;20390;-67
2022/07/31 02:28:58;;;;;;;7.68;4.95;;;;;;;26.21;43.50;101735.31;4989585;28;20045;-69
2022/07/31 02:31:25;;;;;;;6.38;4.63;;;;;;;26.28;43.16;101731.00;4990242;28;20116;-67
2022/07/31 02:33:51;;;;;;;10.77;5.25;;;;;;;26.34;42.62;101728.97;4989886;28;20542;-67
2022/07/31 02:36:19;;;;;;;10.18;5.07;;;;;;;26.29;43.11;101724.38;4989815;28;20427;-67
2022/07/31 02:38:47;;;;;;;10.82;5.38;;;;;;;26.25;42.94;101714.28;4989488;28;20534;-67
2022/07/31 02:41:15;;;;;;;5.43;4.45;;;;;;;26.22;42.85;101707.44;4989581;28;20606;-68
2022/07/31 02:43:43;;;;;;;8.50;4.45;;;;;;;26.29;42.86;101709.78;4990210;28;20023;-67
2022/07/31 02:46:10;;;;;;;6.63;4.28;;;;;;;26.32;42.56;101709.19;4989416;28;20030;-67
2022/07/31 02:48:36;;;;;;;5.82;4.60;;;;;;;26.27;42.47;101704.59;4989445;28;20085;-68
2022/07/31 02:51:02;;;;;;;6.32;4.20;;;;;;;26.25;43.09;101697.75;4988813;28;20564;-66
2022/07/31 02:53:29;;;;;;;6.55;4.47;;;;;;;26.23;42.69;101695.31;4989547;28;20042;-66
2022/07/31 02:55:55;;;;;;;7.75;4.20;;;;;;;26.31;42.82;101700.09;4989524;28;20516;-68
2022/07/31 02:58:21;;;;;;;8.55;4.30;;;;;;;26.25;42.89;101695.81;4990185;28;20034;-68
2022/07/31 03:00:46;;;;;;;6.40;4.18;;;;;;;26.33;42.73;101694.25;4988746;28;20117;-67
2022/07/31 03:03:12;;;;;;;8.32;4.95;;;;;;;26.26;42.87;101694.66;4989455;28;20037;-67
2022/07/31 03:05:37;;;;;;;7.55;4.47;;;;;;;26.19;42.86;101691.53;4989301;28;20054;-66
2022/07/31 03:08:03;;;;;;;6.50;4.50;;;;;;;26.17;43.02;101682.75;4988508;28;20026;-68
2022/07/31 03:10:28;;;;;;;6.40;4.72;;;;;;;26.26;42.90;101683.63;4989531;28;20038;-68
2022/07/31 03:12:55;;;;;;;4.63;4.13;;;;;;;26.25;42.75;101684.78;4988955;28;20054;-68
2022/07/31 03:15:24;;;;;;;7.55;4.72;;;;;;;26.10;42.98;101683.16;4989066;28;20066;-68
2022/07/31 03:17:51;;;;;;;5.68;4.78;;;;;;;26.21;43.00;101681.00;4988941;28;20108;-66
2022/07/31 03:20:17;;;;;;;9.25;4.75;;;;;;;26.07;43.33;101680.22;4988629;28;20117;-67
2022/07/31 03:22:43;;;;;;;7.20;4.93;;;;;;;26.18;43.46;101680.81;4987162;28;20050;-67
2022/07/31 03:25:09;;;;;;;7.53;5.30;;;;;;;26.10;43.60;101674.91;4988468;28;20042;-68
2022/07/31 03:27:35;;;;;;;9.70;5.35;;;;;;;26.22;43.20;101668.84;4988589;28;20038;-67
2022/07/31 03:30:02;;;;;;;8.07;5.35;;;;;;;26.18;43.69;101665.09;4988760;28;20190;-67
2022/07/31 03:32:27;;;;;;;7.82;5.30;;;;;;;26.18;43.71;101658.78;4988076;28;20046;-68
2022/07/31 03:34:52;;;;;;;7.97;5.50;;;;;;;26.16;43.55;101655.50;4989256;28;20022;-68
2022/07/31 03:37:18;;;;;;;7.70;5.15;;;;;;;26.04;44.13;101658.78;4988175;28;20166;-67
2022/07/31 03:39:43;;;;;;;6.55;5.00;;;;;;;26.18;43.73;101650.50;4987783;28;20526;-67
2022/07/31 03:42:10;;;;;;;6.35;4.38;;;;;;;26.23;43.63;101658.66;4987207;28;20031;-68
2022/07/31 03:44:38;;;;;;;7.20;4.82;;;;;;;26.04;43.99;101651.31;4988423;28;20197;-67
2022/07/31 03:47:04;;;;;;;5.78;4.88;;;;;;;26.14;43.78;101644.81;4987247;28;20026;-66
2022/07/31 03:49:31;;;;;;;5.03;4.32;;;;;;;26.12;43.75;101644.31;4989182;28;20038;-68
2022/07/31 03:51:57;;;;;;;10.48;5.32;;;;;;;26.08;43.82;101651.56;4988442;28;20030;-67
2022/07/31 03:54:22;;;;;;;8.18;5.35;;;;;;;26.13;43.52;101653.34;4989062;28;20560;-68
2022/07/31 03:56:50;;;;;;;6.93;5.32;;;;;;;25.99;44.23;101642.34;4987583;28;20039;-68
2022/07/31 03:59:16;;;;;;;11.40;5.90;;;;;;;25.98;44.13;101640.72;4988097;28;20030;-67
2022/07/31 04:01:43;;;;;;;8.32;5.28;;;;;;;25.89;44.74;101642.56;4983901;28;20514;-66
2022/07/31 04:04:10;;;;;;;9.57;5.63;;;;;;;26.02;44.36;101644.50;4970588;28;20035;-67
2022/07/31 04:06:35;;;;;;;9.00;5.32;;;;;;;25.88;44.76;101640.94;4973351;28;20043;-67
2022/07/31 04:09:01;;;;;;;6.95;5.10;;;;;;;25.89;44.56;101643.38;4988646;28;20034;-67
2022/07/31 04:11:27;;;;;;;8.20;5.43;;;;;;;26.04;43.86;101643.03;4975644;28;20062;-69
2022/07/31 04:13:53;;;;;;;7.07;5.03;;;;;;;26.02;43.72;101638.97;4989664;28;20058;-68
2022/07/31 04:16:18;;;;;;;12.55;6.50;;;;;;;26.01;44.07;101643.66;4991328;28;20034;-67
2022/07/31 04:18:44;;;;;;;10.00;5.47;;;;;;;26.12;43.78;101637.97;4988966;28;20092;-67
2022/07/31 04:21:09;;;;;;;8.13;5.47;;;;;;;26.22;43.55;101629.47;4988423;28;20039;-67
2022/07/31 04:23:35;;;;;;;7.25;4.93;;;;;;;26.31;43.40;101630.34;4987865;28;20691;-69
2022/07/31 04:26:00;;;;;;;10.65;5.35;;;;;;;26.32;43.27;101643.03;4989228;28;20117;-66
2022/07/31 04:28:26;;;;;;;13.30;6.43;;;;;;;26.24;43.52;101639.03;4989766;28;20015;-66
2022/07/31 04:30:51;;;;;;;6.93;5.40;;;;;;;26.21;43.62;101638.84;4989375;28;20383;-66
2022/07/31 04:33:17;;;;;;;9.30;5.68;;;;;;;26.24;43.76;101638.25;5001184;28;20493;-67
2022/07/31 04:35:42;;;;;;;10.95;5.82;;;;;;;26.27;43.40;101638.44;5012810;28;20064;-67
2022/07/31 04:38:08;;;;;;;12.48;6.20;;;;;;;26.13;43.69;101634.06;5012651;28;20038;-66
2022/07/31 04:40:33;;;;;;;10.52;5.80;;;;;;;26.13;43.72;101634.06;5013036;28;20022;-67
2022/07/31 04:42:58;;;;;;;9.52;6.20;;;;;;;26.29;43.38;101633.44;5012395;28;20470;-66
2022/07/31 04:45:24;;;;;;;7.80;5.25;;;;;;;26.25;43.54;101626.91;5010866;28;20093;-65
2022/07/31 04:47:49;;;;;;;7.90;5.80;;;;;;;26.30;43.83;101635.03;4992953;28;20049;-67
2022/07/31 04:50:14;;;;;;;6.70;5.43;;;;;;;26.37;43.80;101643.72;4992827;28;20033;-68
2022/07/31 04:52:40;;;;;;;8.65;5.90;;;;;;;26.17;44.31;101633.16;4993337;28;20042;-66
2022/07/31 04:55:05;;;;;;;7.85;5.78;;;;;;;26.22;44.03;101630.28;4992876;28;20041;-68
2022/07/31 04:57:31;;;;;;;16.15;6.40;;;;;;;26.19;44.38;101632.84;4992596;28;20045;-67
2022/07/31 04:59:56;;;;;;;7.72;5.53;;;;;;;26.15;44.66;101634.59;4992451;28;20023;-66
2022/07/31 05:02:22;;;;;;;8.18;5.53;;;;;;;26.17;45.00;101637.84;4992992;28;20030;-67
2022/07/31 05:04:47;;;;;;;9.30;5.88;;;;;;;26.11;44.91;101631.63;4992881;28;20086;-68
2022/07/31 05:07:12;;;;;;;6.38;5.78;;;;;;;26.25;45.24;101635.19;4993140;28;20038;-67
2022/07/31 05:09:38;;;;;;;7.93;5.53;;;;;;;26.21;45.31;101625.06;4992343;28;20035;-67
2022/07/31 05:12:03;;;;;;;9.50;6.55;;;;;;;26.17;45.42;101624.06;4991312;28;20046;-66
2022/07/31 05:14:29;;;;;;;8.63;5.97;;;;;;;26.25;45.24;101615.06;4992464;28;20049;-67
2022/07/31 05:16:55;;;;;;;10.02;6.18;;;;;;;26.32;45.05;101624.53;4991439;28;20463;-66
2022/07/31 05:19:20;;;;;;;8.73;5.70;;;;;;;26.26;45.22;101623.00;4992847;28;20042;-67
2022/07/31 05:21:45;;;;;;;8.07;6.30;;;;;;;26.28;44.90;101622.72;4992144;28;20046;-67
2022/07/31 05:24:11;;;;;;;6.53;5.32;;;;;;;26.30;44.66;101621.25;4992454;28;20046;-67
2022/07/31 05:26:37;;;;;;;10.15;5.60;;;;;;;26.32;44.41;101613.50;4992386;28;20030;-67
2022/07/31 05:29:03;;;;;;;10.63;5.78;;;;;;;26.25;44.55;101626.91;4992138;28;20038;-69
2022/07/31 05:31:29;;;;;;;6.70;5.47;;;;;;;26.35;44.90;101628.63;4992389;28;20085;-67
2022/07/31 05:33:54;;;;;;;9.05;6.15;;;;;;;26.14;45.56;101628.28;4991885;28;20031;-67
2022/07/31 05:36:20;;;;;;;7.05;6.00;;;;;;;26.15;45.90;101632.66;4992472;28;20045;-68
2022/07/31 05:38:46;;;;;;;6.57;5.40;;;;;;;26.22;45.66;101632.22;4992129;28;20109;-68
2022/07/31 05:41:12;;;;;;;8.30;6.63;;;;;;;26.33;45.25;101636.38;4991873;28;20034;-68
2022/07/31 05:43:37;;;;;;;7.88;6.30;;;;;;;26.33;45.58;101634.44;4992257;28;20022;-72
2022/07/31 05:46:04;;;;;;;13.48;6.35;;;;;;;26.37;45.31;101635.44;4991822;28;20122;-69
2022/07/31 05:48:30;;;;;;;8.05;5.75;;;;;;;26.41;45.19;101630.13;4991580;28;20121;-70
2022/07/31 05:50:55;;;;;;;8.05;5.40;;;;;;;26.62;44.51;101632.06;4991551;28;20113;-66
2022/07/31 05:53:21;;;;;;;9.27;6.43;;;;;;;26.62;44.48;101623.81;4992300;28;20521;-67
2022/07/31 05:55:48;;;;;;;7.65;5.68;;;;;;;26.75;44.05;101628.47;4991660;28;20072;-67
2022/07/31 05:58:15;;;;;;;8.07;5.75;;;;;;;26.76;44.68;101623.75;4991992;28;20031;-67
2022/07/31 06:00:41;;;;;;;7.78;6.15;;;;;;;26.73;44.53;101624.41;4990183;28;20048;-67
2022/07/31 06:03:07;;;;;;;7.65;5.68;;;;;;;26.55;45.16;101623.44;4990113;28;20049;-67
2022/07/31 06:05:32;;;;;;;8.98;5.82;;;;;;;26.62;44.85;101622.97;4991494;28;20038;-68
2022/07/31 06:07:59;;;;;;;7.68;5.60;;;;;;;26.78;44.35;101624.28;4991530;28;20034;-67
2022/07/31 06:10:26;;;;;;;11.80;5.18;;;;;;;26.93;43.86;101619.16;4991977;28;20033;-67
2022/07/31 06:12:51;;;;;;;8.45;5.40;;;;;;;26.91;44.27;101626.94;4990868;28;20537;-68
2022/07/31 06:15:17;;;;;;;9.35;5.72;;;;;;;26.71;44.21;101624.69;4991505;28;20035;-67
2022/07/31 06:17:42;;;;;;;8.95;5.63;;;;;;;27.01;43.68;101630.59;4990940;28;20450;-69
2022/07/31 06:20:09;;;;;;;8.88;5.82;;;;;;;26.95;43.37;101622.44;4986597;28;20027;-68
2022/07/31 06:22:35;;;;;;;8.85;5.22;;;;;;;27.18;42.73;101617.69;4972044;28;20051;-67
2022/07/31 06:25:02;;;;;;;7.28;4.85;;;;;;;27.21;43.34;101619.81;4986542;28;20057;-67
2022/07/31 06:27:27;;;;;;;9.27;5.20;;;;;;;27.37;42.53;101621.06;4986918;28;20057;-66
2022/07/31 06:29:53;;;;;;;9.40;4.57;;;;;;;27.48;42.63;101610.53;4971948;28;20380;-68
2022/07/31 06:32:19;;;;;;;8.63;5.10;;;;;;;27.49;42.90;101618.50;4986484;28;20383;-68
2022/07/31 06:34:44;;;;;;;10.07;5.72;;;;;;;27.38;42.59;101619.13;4971779;28;20041;-66
2022/07/31 06:37:10;;;;;;;8.80;5.88;;;;;;;27.41;42.80;101611.00;4971562;28;20038;-68
2022/07/31 06:39:35;;;;;;;9.05;5.47;;;;;;;27.51;42.75;101613.47;4971671;28;20043;-67
2022/07/31 06:42:01;;;;;;;9.90;5.15;;;;;;;27.53;42.78;101602.94;4970773;28;20035;-68
2022/07/31 06:44:27;;;;;;;6.38;5.00;;;;;;;27.46;42.53;101607.28;4970319;28;20422;-67
2022/07/31 06:46:53;;;;;;;6.53;4.45;;;;;;;27.40;42.51;101606.59;4984092;28;20107;-66
2022/07/31 06:49:18;;;;;;;7.82;4.03;;;;;;;27.32;42.76;101599.06;4990236;28;20492;-68
2022/07/31 06:51:43;;;;;;;7.32;3.30;;;;;;;26.98;43.66;101607.19;4989786;28;20057;-68
2022/07/31 06:54:10;;;;;;;6.75;3.63;;;;;;;26.83;44.45;101594.59;4989623;28;20553;-69
2022/07/31 06:56:37;;;;;;;9.02;3.60;;;;;;;26.99;43.88;101595.00;4989079;28;20050;-68
2022/07/31 06:59:04;;;;;;;6.60;2.83;;;;;;;27.14;43.93;101594.63;4989475;28;20414;-68
2022/07/31 07:01:29;;;;;;;7.03;3.10;;;;;;;27.13;44.06;101595.75;4990163;28;20034;-66
2022/07/31 07:03:55;;;;;;;5.07;3.00;;;;;;;26.93;44.11;101605.38;4990570;28;20041;-66
2022/07/31 07:06:20;;;;;;;5.75;3.20;;;;;;;26.90;44.72;101599.69;4990819;28;20057;-68
2022/07/31 07:08:46;;;;;;;7.30;2.90;;;;;;;27.29;43.62;101596.97;4989883;28;20037;-67
2022/07/31 07:11:12;;;;;;;5.10;3.10;;;;;;;26.76;44.80;101588.72;4990701;28;20037;-67
2022/07/31 07:13:37;;;;;;;4.35;3.28;;;;;;;27.37;43.27;101587.09;4991044;28;20439;-70
2022/07/31 07:16:03;;;;;;;6.80;2.85;;;;;;;27.24;43.64;101579.72;4990509;28;20034;-67
2022/07/31 07:18:28;;;;;;;4.82;2.92;;;;;;;27.46;43.69;101580.47;4990360;28;20545;-66
2022/07/31 07:20:54;;;;;;;7.35;2.78;;;;;;;27.80;42.65;101590.78;4990111;28;20041;-68
2022/07/31 07:23:20;;;;;;;7.05;3.40;;;;;;;27.36;43.68;101589.03;4990761;28;20034;-67
2022/07/31 07:25:46;;;;;;;5.15;2.83;;;;;;;27.37;43.67;101581.59;4990568;28;20058;-67
2022/07/31 07:28:12;;;;;;;6.50;2.90;;;;;;;27.22;43.77;101582.81;4990243;28;20050;-66
2022/07/31 07:30:38;;;;;;;6.72;3.47;;;;;;;27.35;43.51;101570.03;4989950;28;20054;-66
2022/07/31 07:33:04;;;;;;;3.83;2.95;;;;;;;28.01;41.97;101571.69;4989576;28;20502;-67
2022/07/31 07:35:30;;;;;;;5.88;3.38;;;;;;;27.56;43.19;101577.41;4989908;28;20083;-67
2022/07/31 07:37:56;;;;;;;6.30;3.15;;;;;;;27.43;43.46;101567.31;4989818;28;20487;-67
2022/07/31 07:40:21;;;;;;;6.60;3.50;;;;;;;27.16;44.20;101575.81;4990356;28;20065;-70
2022/07/31 07:42:47;;;;;;;4.05;2.58;;;;;;;27.56;43.85;101577.41;4989819;28;20046;-70
2022/07/31 07:45:13;;;;;;;5.53;3.50;;;;;;;27.30;44.02;101572.94;4989628;28;20349;-69
2022/07/31 07:47:38;;;;;;;7.28;2.83;;;;;;;27.36;43.92;101571.69;4970201;28;20479;-71
2022/07/31 07:50:08;;;;;;;6.50;3.08;;;;;;;27.44;43.39;101566.19;4970215;28;20109;-70
2022/07/31 07:52:35;;;;;;;8.25;2.53;;;;;;;27.72;43.04;101573.06;4970573;28;20424;-70
2022/07/31 07:55:00;;;;;;;4.28;2.63;;;;;;;28.06;41.80;101568.75;4970023;28;20039;-69
2022/07/31 07:57:26;;;;;;;5.25;2.85;;;;;;;28.30;41.46;101577.38;4970108;28;20042;-70
2022/07/31 07:59:51;;;;;;;7.75;2.90;;;;;;;28.28;40.88;101574.13;4988972;28;20030;-70
2022/07/31 08:02:17;;;;;;;4.60;2.92;;;;;;;28.12;41.42;101568.28;4989708;28;20034;-69
2022/07/31 08:04:43;;;;;;;7.32;3.58;;;;;;;28.41;40.88;101565.66;4989021;28;20113;-70
2022/07/31 08:07:09;;;;;;;5.00;2.90;;;;;;;27.83;41.81;101568.84;4990443;28;20030;-71
2022/07/31 08:09:35;;;;;;;3.60;2.50;;;;;;;27.80;42.26;101575.03;4992449;28;20038;-68
2022/07/31 08:12:02;;;;;;;5.80;2.75;;;;;;;28.24;41.54;101571.22;4993467;28;20042;-71
2022/07/31 08:14:27;;;;;;;5.82;3.40;;;;;;;27.94;41.74;101572.13;4993346;28;20129;-68
2022/07/31 08:16:53;;;;;;;6.72;2.90;;;;;;;28.21;41.67;101568.25;4993764;28;20113;-69
2022/07/31 08:19:19;;;;;;;7.38;3.00;;;;;;;28.15;41.79;101575.91;4994051;28;20133;-72
2022/07/31 08:21:45;;;;;;;8.20;2.95;;;;;;;28.28;41.74;101569.41;5011956;28;20474;-69
2022/07/31 08:24:11;;;;;;;6.13;2.90;;;;;;;28.31;41.46;101567.94;5012539;28;20045;-69
2022/07/31 08:29:21;;;;;;;6.50;3.30;;;;;;;27.88;41.85;101569.84;5013279;28;20501;-69
2022/07/31 08:31:46;;;;;;;4.35;3.08;;;;;;;27.63;42.73;101574.19;5013283;28;20038;-66
2022/07/31 08:34:12;;;;;;;5.60;3.03;;;;;;;27.33;43.53;101575.91;5012968;28;20033;-70
2022/07/31 08:36:38;;;;;;;6.05;3.13;;;;;;;27.48;42.78;101575.44;5011942;28;20529;-71
2022/07/31 08:39:04;;;;;;;6.25;3.00;;;;;;;27.63;43.25;101571.44;4983666;28;20050;-71
2022/07/31 08:41:31;;;;;;;4.25;2.67;;;;;;;27.68;42.80;101572.09;5011477;28;20025;-70
2022/07/31 08:43:57;;;;;;;4.00;2.40;;;;;;;27.57;43.44;101572.72;5011126;28;20022;-73
2022/07/31 08:46:24;;;;;;;7.15;2.85;;;;;;;26.99;45.04;101583.97;5013363;28;20040;-73
2022/07/31 08:48:54;;;;;;;4.05;2.72;;;;;;;27.21;44.75;101586.69;5011622;28;20486;-73
2022/07/31 08:51:22;;;;;;;8.02;2.85;;;;;;;27.31;45.64;101593.88;5013041;28;20070;-74
2022/07/31 08:53:50;;;;;;;4.80;2.83;;;;;;;26.82;46.72;101589.41;5012472;28;20036;-73
2022/07/31 08:56:17;;;;;;;5.90;3.30;;;;;;;26.15;48.62;101599.59;5012584;28;20042;-73
2022/07/31 08:58:42;;;;;;;6.68;3.53;;;;;;;25.63;50.00;101598.22;5006903;28;20018;-73
2022/07/31 09:01:11;;;;;;;5.57;3.58;;;;;;;26.05;49.59;101597.03;5010640;28;20042;-74
2022/07/31 09:03:37;;;;;;;6.65;3.40;;;;;;;26.44;48.61;101590.88;5011621;28;20025;-74
2022/07/31 09:06:03;;;;;;;8.50;3.58;;;;;;;26.63;48.65;101599.81;5006796;28;20168;-73
2022/07/31 09:08:36;;;;;;;4.10;3.38;;;;;;;26.20;50.90;101596.69;5012039;28;20121;-72
2022/07/31 09:11:02;;;;;;;7.13;3.55;;;;;;;25.85;51.74;101591.97;5011379;28;20038;-72
2022/07/31 09:13:27;;;;;;;4.70;3.53;;;;;;;26.18;51.47;101592.66;5008175;28;20129;-71
2022/07/31 09:15:57;;;;;;;7.25;3.80;;;;;;;26.47;51.12;101593.03;5008216;28;20378;-71
2022/07/31 09:18:24;;;;;;;5.85;3.88;;;;;;;26.36;52.28;101597.97;5002190;28;20042;-70
2022/07/31 09:20:58;;;;;;;7.13;4.38;;;;;;;26.47;51.69;101593.03;5001177;28;20037;-70
2022/07/31 09:23:25;;;;;;;9.75;4.90;;;;;;;26.14;52.29;101592.47;5010497;28;20034;-70
2022/07/31 09:26:01;;;;;;;8.38;5.07;;;;;;;25.91;53.84;101593.47;5010783;28;20557;-71
2022/07/31 09:28:32;;;;;;;6.88;4.97;;;;;;;26.03;53.69;101585.50;5008009;28;20025;-70
2022/07/31 09:30:58;;;;;;;7.15;5.65;;;;;;;26.45;52.84;101587.03;5008636;28;20038;-70
2022/07/31 09:33:27;;;;;;;9.35;5.95;;;;;;;26.48;52.77;101589.97;5009781;28;20038;-71
2022/07/31 09:35:52;;;;;;;6.95;5.00;;;;;;;26.75;52.37;101581.56;5010378;28;20030;-71
2022/07/31 09:38:19;;;;;;;9.95;5.38;;;;;;;26.83;52.80;101586.31;5008748;28;20041;-72
2022/07/31 09:40:45;;;;;;;10.50;5.40;;;;;;;26.79;52.97;101587.28;5010359;28;20121;-69
2022/07/31 09:43:15;;;;;;;10.38;5.90;;;;;;;26.28;54.59;101584.13;5009944;28;20042;-72
2022/07/31 09:45:43;;;;;;;;;;;;;;;26.19;53.82;101575.78;5010141;28;20034;-75
2022/07/31 09:48:11;;;;;;;9.35;6.45;;;;;;;26.29;53.48;101580.25;5008888;28;19917;-72
2022/07/31 09:50:37;;;;;;;13.63;7.20;;;;;;;26.42;53.55;101580.19;5010475;28;20060;-73
2022/07/31 09:53:05;;;;;;;10.80;7.15;;;;;;;26.21;53.73;101578.22;5005076;28;20034;-74
2022/07/31 09:55:30;;;;;;;9.85;7.28;;;;;;;26.32;53.41;101583.19;5010793;28;20017;-73
2022/07/31 09:57:58;;;;;;;10.02;8.00;;;;;;;26.09;54.47;101573.28;5007243;28;20050;-73
2022/07/31 10:00:26;;;;;;;13.00;8.38;;;;;;;26.09;54.75;101573.28;5001339;28;20080;-72
2022/07/31 10:02:53;;;;;;;13.27;8.25;;;;;;;26.48;53.49;101572.59;4995741;28;20108;-71
2022/07/31 10:05:22;;;;;;;14.30;9.00;;;;;;;26.95;53.31;101570.00;4998882;28;20037;-72
2022/07/31 10:07:48;;;;;;;13.18;8.40;;;;;;;26.90;53.47;101572.09;5001663;28;20053;-73
2022/07/31 10:10:15;;;;;;;13.57;8.68;;;;;;;27.09;52.12;101566.31;4993570;28;20041;-75
2022/07/31 10:12:45;;;;;;;13.68;9.57;;;;;;;27.00;52.94;101571.00;4997212;28;20222;-74
2022/07/31 10:15:12;;;;;;;12.07;9.23;;;;;;;27.34;51.75;101571.19;4995017;28;20038;-75
2022/07/31 10:17:42;;;;;;;16.95;10.13;;;;;;;26.85;53.13;101573.03;4994197;28;20046;-74
2022/07/31 10:20:12;;;;;;;11.50;8.95;;;;;;;26.93;52.56;101574.22;4983864;28;20035;-73
2022/07/31 10:22:45;;;;;;;14.60;9.30;;;;;;;27.07;52.42;101561.13;4994925;28;20044;-73
2022/07/31 10:25:18;;;;;;;13.25;10.25;;;;;;;27.24;52.79;101558.47;5001283;28;20042;-74
2022/07/31 10:27:44;;;;;;;16.00;10.18;;;;;;;26.95;52.74;101563.66;5002311;28;20776;-73
2022/07/31 10:30:10;;;;;;;15.50;11.27;;;;;;;26.98;51.98;101565.81;4999008;28;20081;-73
2022/07/31 10:32:36;;;;;;;20.50;11.55;;;;;;;26.48;53.60;101558.81;4993660;28;20121;-74
2022/07/31 10:35:05;;;;;;;15.73;10.88;;;;;;;26.42;54.22;101557.31;4990289;28;20151;-72
2022/07/31 10:38:05;;;;;;;18.88;12.65;;;;;;;25.73;56.10;101551.19;4991019;28;20075;-70
2022/07/31 10:40:53;;;;;;;24.20;12.98;;;;;;;26.23;54.78;101548.41;4970918;28;20467;-72
2022/07/31 10:43:45;;;;;;;21.42;13.30;;;;;;;26.63;53.98;101558.44;4977280;28;20567;-71
2022/07/31 10:46:11;;;;;;;23.45;14.20;;;;;;;25.98;56.12;101555.31;4983069;28;20092;-71
2022/07/31 10:48:36;;;;;;;19.85;14.43;;;;;;;25.80;56.83;101559.03;4989463;28;20046;-72
2022/07/31 10:51:07;;;;;;;23.98;15.25;;;;;;;26.02;57.03;101548.06;4987907;28;20069;-73
2022/07/31 10:53:33;;;;;;;22.85;15.43;;;;;;;26.15;56.43;101554.66;4986896;28;20590;-73
2022/07/31 10:56:03;;;;;;;23.05;16.02;;;;;;;25.98;57.79;101552.56;4991226;28;20022;-74
2022/07/31 10:58:29;;;;;;;23.30;16.08;;;;;;;26.10;56.96;101552.88;4990929;28;20038;-74
2022/07/31 11:01:08;;;;;;;26.23;16.10;;;;;;;26.28;57.57;101540.03;5000191;28;20533;-73
2022/07/31 11:03:48;;;;;;;21.42;15.85;;;;;;;26.21;57.36;101545.97;4994304;28;20042;-73
2022/07/31 11:06:15;;;;;;;23.83;17.58;;;;;;;26.18;57.05;101548.56;5000324;28;20117;-74
2022/07/31 11:08:47;;;;;;;23.88;17.90;;;;;;;26.62;56.78;101543.00;5004767;28;20509;-70
2022/07/31 11:11:13;;;;;;;24.33;18.70;;;;;;;26.06;58.62;101543.59;5001408;28;20387;-72
2022/07/31 11:13:56;;;;;;;24.70;19.30;;;;;;;26.18;59.13;101535.56;5003669;28;20553;-70
2022/07/31 11:16:22;;;;;;;30.90;20.58;;;;;;;25.76;60.64;101538.75;5004292;28;20049;-70
2022/07/31 11:19:03;;;;;;;33.63;22.00;;;;;;;26.44;58.96;101528.31;5003307;28;20141;-70
2022/07/31 11:21:34;;;;;;;32.83;23.40;;;;;;;26.25;59.43;101530.44;5004483;28;20041;-73
2022/07/31 11:24:01;;;;;;;31.25;22.48;;;;;;;25.82;60.59;101532.00;5004904;28;20026;-72